sensor_id;sensor_type;location;lat;lon;timestamp;temperature;humidity
20858;DHT22;10589;53.636;10.012;2022-11-18T04:45:23;1.20;99.90
20858;DHT22;10589;53.636;10.012;2022-11-18T04:47:48;1.20;99.90
20858;DHT22;10589;53.636;10.012;2022-11-18T04:50:14;1.20;99.90
20858;DHT22;10589;53.636;10.012;2022-11-18T04:52:40;1.20;99.90
20858;DHT22;10589;53.636;10.012;2022-11-18T04:55:06;1.20;99.90
20858;DHT22;10589;53.636;10.012;2022-11-18T04:57:31;1.20;99.90
20858;DHT22;10589;53.636;10.012;2022-11-18T04:59:57;1.20;99.90
20858;DHT22;10589;53.636;10.012;2022-11-18T05:02:22;1.20;99.90
20858;DHT22;10589;53.636;10.012;2022-11-18T05:04:48;1.20;99.90
20858;DHT22;10589;53.636;10.012;2022-11-18T05:07:14;1.20;99.90
20858;DHT22;10589;53.636;10.012;2022-11-18T05:09:40;1.20;99.90
20858;DHT22;10589;53.636;10.012;2022-11-18T05:12:10;1.20;99.90
20858;DHT22;10589;53.636;10.012;2022-11-18T05:14:55;1.10;99.90
20858;DHT22;10589;53.636;10.012;2022-11-18T05:17:20;1.10;99.90
20858;DHT22;10589;53.636;10.012;2022-11-18T05:19:46;1.10;99.90
20858;DHT22;10589;53.636;10.012;2022-11-18T05:22:13;1.10;99.90
20858;DHT22;10589;53.636;10.012;2022-11-18T05:24:40;1.10;99.90
20858;DHT22;10589;53.636;10.012;2022-11-18T05:27:06;1.10;99.90
20858;DHT22;10589;53.636;10.012;2022-11-18T05:29:32;1.10;99.90
20858;DHT22;10589;53.636;10.012;2022-11-18T05:31:58;1.00;99.90
20858;DHT22;10589;53.636;10.012;2022-11-18T05:34:24;1.10;99.90
20858;DHT22;10589;53.636;10.012;2022-11-18T05:36:50;1.10;99.90
20858;DHT22;10589;53.636;10.012;2022-11-18T05:39:16;1.00;99.90
20858;DHT22;10589;53.636;10.012;2022-11-18T05:41:42;1.00;99.90
20858;DHT22;10589;53.636;10.012;2022-11-18T05:44:27;1.00;99.90
20858;DHT22;10589;53.636;10.012;2022-11-18T05:46:53;1.00;99.90
20858;DHT22;10589;53.636;10.012;2022-11-18T05:49:20;1.00;99.90
20858;DHT22;10589;53.636;10.012;2022-11-18T05:51:46;1.00;99.90
20858;DHT22;10589;53.636;10.012;2022-11-18T05:54:13;1.00;99.90
20858;DHT22;10589;53.636;10.012;2022-11-18T05:56:43;1.00;99.90
20858;DHT22;10589;53.636;10.012;2022-11-18T05:59:10;1.00;99.90
20858;DHT22;10589;53.636;10.012;2022-11-18T06:01:46;1.00;99.90
20858;DHT22;10589;53.636;10.012;2022-11-18T06:09:40;1.00;99.90
20858;DHT22;10589;53.636;10.012;2022-11-18T06:12:08;1.00;99.90
20858;DHT22;10589;53.636;10.012;2022-11-18T06:15:07;1.00;99.90
20858;DHT22;10589;53.636;10.012;2022-11-18T06:17:46;0.90;99.90
20858;DHT22;10589;53.636;10.012;2022-11-18T06:20:16;0.90;99.90
20858;DHT22;10589;53.636;10.012;2022-11-18T06:22:42;0.90;99.90
20858;DHT22;10589;53.636;10.012;2022-11-18T06:25:08;0.90;99.90
20858;DHT22;10589;53.636;10.012;2022-11-18T06:27:33;0.90;99.90
20858;DHT22;10589;53.636;10.012;2022-11-18T06:29:59;0.90;99.90
20858;DHT22;10589;53.636;10.012;2022-11-18T06:32:25;0.90;99.90
20858;DHT22;10589;53.636;10.012;2022-11-18T06:34:50;0.80;99.90
20858;DHT22;10589;53.636;10.012;2022-11-18T06:37:18;0.80;99.90
20858;DHT22;10589;53.636;10.012;2022-11-18T06:39:46;0.80;99.90
20858;DHT22;10589;53.636;10.012;2022-11-18T06:42:12;0.80;99.90
20858;DHT22;10589;53.636;10.012;2022-11-18T06:44:57;0.80;99.90
20858;DHT22;10589;53.636;10.012;2022-11-18T06:47:22;0.80;99.90
20858;DHT22;10589;53.636;10.012;2022-11-18T06:49:48;0.80;99.90
20858;DHT22;10589;53.636;10.012;2022-11-18T06:52:13;0.80;99.90
20858;DHT22;10589;53.636;10.012;2022-11-18T06:54:39;0.90;99.90
20858;DHT22;10589;53.636;10.012;2022-11-18T06:57:05;0.80;99.90
20858;DHT22;10589;53.636;10.012;2022-11-18T06:59:30;0.80;99.90
20858;DHT22;10589;53.636;10.012;2022-11-18T07:01:56;0.80;99.90
20858;DHT22;10589;53.636;10.012;2022-11-18T07:04:22;0.80;99.90
20858;DHT22;10589;53.636;10.012;2022-11-18T07:06:48;0.80;99.90
20858;DHT22;10589;53.636;10.012;2022-11-18T07:09:13;0.80;99.90
20858;DHT22;10589;53.636;10.012;2022-11-18T07:11:39;0.80;99.90
20858;DHT22;10589;53.636;10.012;2022-11-18T07:14:06;0.80;99.90
20858;DHT22;10589;53.636;10.012;2022-11-18T07:16:33;0.80;99.90
20858;DHT22;10589;53.636;10.012;2022-11-18T07:18:58;0.80;99.90
20858;DHT22;10589;53.636;10.012;2022-11-18T07:21:26;0.80;99.90
20858;DHT22;10589;53.636;10.012;2022-11-18T07:23:52;0.80;99.90
20858;DHT22;10589;53.636;10.012;2022-11-18T07:26:18;0.90;99.90
20858;DHT22;10589;53.636;10.012;2022-11-18T07:28:44;0.80;99.90
20858;DHT22;10589;53.636;10.012;2022-11-18T07:31:15;0.80;99.90
20858;DHT22;10589;53.636;10.012;2022-11-18T07:33:42;0.80;99.90
20858;DHT22;10589;53.636;10.012;2022-11-18T07:36:19;0.90;99.90
20858;DHT22;10589;53.636;10.012;2022-11-18T07:38:45;0.90;99.90
20858;DHT22;10589;53.636;10.012;2022-11-18T07:41:19;0.90;99.90
20858;DHT22;10589;53.636;10.012;2022-11-18T07:43:45;0.90;99.90
20858;DHT22;10589;53.636;10.012;2022-11-18T07:46:20;0.90;99.90
20858;DHT22;10589;53.636;10.012;2022-11-18T07:48:47;0.90;99.90
20858;DHT22;10589;53.636;10.012;2022-11-18T07:51:14;0.90;99.90
20858;DHT22;10589;53.636;10.012;2022-11-18T07:53:41;0.90;99.90
20858;DHT22;10589;53.636;10.012;2022-11-18T07:56:07;0.90;99.90
20858;DHT22;10589;53.636;10.012;2022-11-18T07:58:34;0.90;99.90
20858;DHT22;10589;53.636;10.012;2022-11-18T08:03:33;1.00;99.90
20858;DHT22;10589;53.636;10.012;2022-11-18T08:06:00;1.00;99.90
20858;DHT22;10589;53.636;10.012;2022-11-18T08:08:26;1.00;99.90
20858;DHT22;10589;53.636;10.012;2022-11-18T08:10:55;0.90;99.90
20858;DHT22;10589;53.636;10.012;2022-11-18T08:13:21;1.00;99.90
20858;DHT22;10589;53.636;10.012;2022-11-18T08:15:47;1.00;99.90
20858;DHT22;10589;53.636;10.012;2022-11-18T08:18:12;1.10;99.90
20858;DHT22;10589;53.636;10.012;2022-11-18T08:20:38;1.10;99.90
20858;DHT22;10589;53.636;10.012;2022-11-18T08:23:03;1.10;99.90
20858;DHT22;10589;53.636;10.012;2022-11-18T08:25:29;1.10;99.90
20858;DHT22;10589;53.636;10.012;2022-11-18T08:27:55;1.10;99.90
20858;DHT22;10589;53.636;10.012;2022-11-18T08:30:20;1.10;99.90
20858;DHT22;10589;53.636;10.012;2022-11-18T08:32:46;1.10;99.90
20858;DHT22;10589;53.636;10.012;2022-11-18T08:35:12;1.10;99.90
20858;DHT22;10589;53.636;10.012;2022-11-18T08:37:37;1.10;99.90
20858;DHT22;10589;53.636;10.012;2022-11-18T08:40:03;1.20;99.90
20858;DHT22;10589;53.636;10.012;2022-11-18T08:42:29;1.10;99.90
20858;DHT22;10589;53.636;10.012;2022-11-18T08:44:54;1.20;99.90
20858;DHT22;10589;53.636;10.012;2022-11-18T08:47:20;1.20;99.90
20858;DHT22;10589;53.636;10.012;2022-11-18T08:49:46;1.20;99.90
20858;DHT22;10589;53.636;10.012;2022-11-18T08:52:11;1.20;99.90
20858;DHT22;10589;53.636;10.012;2022-11-18T08:54:37;1.20;99.90
20858;DHT22;10589;53.636;10.012;2022-11-18T08:57:03;1.20;99.90
20858;DHT22;10589;53.636;10.012;2022-11-18T08:59:28;1.30;99.90
20858;DHT22;10589;53.636;10.012;2022-11-18T09:01:54;1.20;99.90
20858;DHT22;10589;53.636;10.012;2022-11-18T09:04:19;1.20;99.90
20858;DHT22;10589;53.636;10.012;2022-11-18T09:06:45;1.20;99.90
20858;DHT22;10589;53.636;10.012;2022-11-18T09:09:11;1.20;99.90
20858;DHT22;10589;53.636;10.012;2022-11-18T09:11:38;1.20;99.90
20858;DHT22;10589;53.636;10.012;2022-11-18T09:14:04;1.30;99.90
20858;DHT22;10589;53.636;10.012;2022-11-18T09:16:31;1.30;99.90
20858;DHT22;10589;53.636;10.012;2022-11-18T09:18:57;1.30;99.90
20858;DHT22;10589;53.636;10.012;2022-11-18T09:21:24;1.30;99.90
20858;DHT22;10589;53.636;10.012;2022-11-18T09:23:50;1.40;99.90
20858;DHT22;10589;53.636;10.012;2022-11-18T09:26:17;1.40;99.90
20858;DHT22;10589;53.636;10.012;2022-11-18T09:28:45;1.40;99.90
20858;DHT22;10589;53.636;10.012;2022-11-18T09:31:13;1.40;99.90
20858;DHT22;10589;53.636;10.012;2022-11-18T09:33:40;1.30;99.90
20858;DHT22;10589;53.636;10.012;2022-11-18T09:36:12;1.30;99.90
20858;DHT22;10589;53.636;10.012;2022-11-18T09:38:38;1.40;99.90
20858;DHT22;10589;53.636;10.012;2022-11-18T09:41:28;1.40;99.90
20858;DHT22;10589;53.636;10.012;2022-11-18T09:49:44;1.40;99.90
20858;DHT22;10589;53.636;10.012;2022-11-18T09:54:41;1.50;99.90
20858;DHT22;10589;53.636;10.012;2022-11-18T09:57:33;1.50;99.90
20858;DHT22;10589;53.636;10.012;2022-11-18T10:00:00;1.50;99.90
20858;DHT22;10589;53.636;10.012;2022-11-18T10:05:22;1.50;99.90
20858;DHT22;10589;53.636;10.012;2022-11-18T10:08:13;1.60;99.90
20858;DHT22;10589;53.636;10.012;2022-11-18T10:14:15;1.60;99.90
20858;DHT22;10589;53.636;10.012;2022-11-18T10:17:17;1.60;99.90
20858;DHT22;10589;53.636;10.012;2022-11-18T10:22:32;1.70;99.90
20858;DHT22;10589;53.636;10.012;2022-11-18T10:24:59;1.70;99.90
20858;DHT22;10589;53.636;10.012;2022-11-18T10:27:33;1.80;99.90
20858;DHT22;10589;53.636;10.012;2022-11-18T10:30:00;1.80;99.90
20858;DHT22;10589;53.636;10.012;2022-11-18T10:32:26;1.80;99.90
20858;DHT22;10589;53.636;10.012;2022-11-18T10:34:54;1.80;99.90
20858;DHT22;10589;53.636;10.012;2022-11-18T10:37:34;1.80;99.90
20858;DHT22;10589;53.636;10.012;2022-11-18T10:40:03;1.80;99.90
20858;DHT22;10589;53.636;10.012;2022-11-18T10:42:45;1.90;99.90
20858;DHT22;10589;53.636;10.012;2022-11-18T10:45:28;1.80;99.90
20858;DHT22;10589;53.636;10.012;2022-11-18T10:48:15;1.80;99.90
20858;DHT22;10589;53.636;10.012;2022-11-18T10:50:48;1.80;99.90
20858;DHT22;10589;53.636;10.012;2022-11-18T10:55:58;1.90;99.90
20858;DHT22;10589;53.636;10.012;2022-11-18T10:58:25;1.90;99.90
20858;DHT22;10589;53.636;10.012;2022-11-18T11:00:51;1.90;99.90
20858;DHT22;10589;53.636;10.012;2022-11-18T11:03:23;1.90;99.90
20858;DHT22;10589;53.636;10.012;2022-11-18T11:08:47;2.00;99.90
20858;DHT22;10589;53.636;10.012;2022-11-18T11:11:24;2.10;99.90
20858;DHT22;10589;53.636;10.012;2022-11-18T11:14:10;2.20;99.90
20858;DHT22;10589;53.636;10.012;2022-11-18T11:17:13;2.20;99.90
20858;DHT22;10589;53.636;10.012;2022-11-18T11:19:50;2.10;99.90
20858;DHT22;10589;53.636;10.012;2022-11-18T11:22:16;2.20;99.90
20858;DHT22;10589;53.636;10.012;2022-11-18T11:24:42;2.20;99.90
20858;DHT22;10589;53.636;10.012;2022-11-18T11:30:25;2.20;99.90
20858;DHT22;10589;53.636;10.012;2022-11-18T11:36:08;2.10;99.90
20858;DHT22;10589;53.636;10.012;2022-11-18T11:38:50;2.10;99.90
20858;DHT22;10589;53.636;10.012;2022-11-18T11:41:30;2.20;99.90
20858;DHT22;10589;53.636;10.012;2022-11-18T11:44:22;2.20;99.90
20858;DHT22;10589;53.636;10.012;2022-11-18T11:49:52;2.40;99.90
20858;DHT22;10589;53.636;10.012;2022-11-18T11:55:48;2.40;99.90
20858;DHT22;10589;53.636;10.012;2022-11-18T11:59:11;2.40;99.90
20858;DHT22;10589;53.636;10.012;2022-11-18T12:02:43;2.50;99.90
20858;DHT22;10589;53.636;10.012;2022-11-18T12:04:49;2.50;99.90
20858;DHT22;10589;53.636;10.012;2022-11-18T12:07:21;2.50;99.90
20858;DHT22;10589;53.636;10.012;2022-11-18T12:10:18;2.60;99.90
20858;DHT22;10589;53.636;10.012;2022-11-18T12:18:39;2.70;99.90
20858;DHT22;10589;53.636;10.012;2022-11-18T12:21:06;2.60;99.90
20858;DHT22;10589;53.636;10.012;2022-11-18T12:23:33;2.70;99.90
20858;DHT22;10589;53.636;10.012;2022-11-18T12:28:27;2.70;99.90
20858;DHT22;10589;53.636;10.012;2022-11-18T12:33:43;2.70;99.90
20858;DHT22;10589;53.636;10.012;2022-11-18T12:36:09;2.60;99.90
20858;DHT22;10589;53.636;10.012;2022-11-18T12:38:48;2.60;99.90
20858;DHT22;10589;53.636;10.012;2022-11-18T12:44:25;2.60;99.90
20858;DHT22;10589;53.636;10.012;2022-11-18T12:46:59;2.60;99.90
20858;DHT22;10589;53.636;10.012;2022-11-18T12:51:52;2.70;99.90
20858;DHT22;10589;53.636;10.012;2022-11-18T12:54:36;2.70;99.90
20858;DHT22;10589;53.636;10.012;2022-11-18T12:57:22;2.70;99.90
20858;DHT22;10589;53.636;10.012;2022-11-18T12:59:49;2.60;99.90
20858;DHT22;10589;53.636;10.012;2022-11-18T13:02:24;2.60;99.90
20858;DHT22;10589;53.636;10.012;2022-11-18T13:07:49;2.50;99.90
20858;DHT22;10589;53.636;10.012;2022-11-18T13:10:37;2.40;99.90
20858;DHT22;10589;53.636;10.012;2022-11-18T13:13:04;2.30;99.90
20858;DHT22;10589;53.636;10.012;2022-11-18T13:15:30;2.30;99.90
20858;DHT22;10589;53.636;10.012;2022-11-18T13:18:16;2.30;99.90
20858;DHT22;10589;53.636;10.012;2022-11-18T13:20:43;2.20;99.90
20858;DHT22;10589;53.636;10.012;2022-11-18T13:23:30;2.20;99.90
20858;DHT22;10589;53.636;10.012;2022-11-18T13:26:32;2.10;99.90
20858;DHT22;10589;53.636;10.012;2022-11-18T13:34:47;2.00;99.90
20858;DHT22;10589;53.636;10.012;2022-11-18T13:37:21;2.00;99.90
20858;DHT22;10589;53.636;10.012;2022-11-18T13:39:48;1.90;99.90
20858;DHT22;10589;53.636;10.012;2022-11-18T13:42:21;1.90;99.90
20858;DHT22;10589;53.636;10.012;2022-11-18T13:45:00;1.90;99.90
20858;DHT22;10589;53.636;10.012;2022-11-18T13:53:25;1.90;99.90
20858;DHT22;10589;53.636;10.012;2022-11-18T13:55:54;1.90;99.90
20858;DHT22;10589;53.636;10.012;2022-11-18T13:58:41;1.90;99.90
20858;DHT22;10589;53.636;10.012;2022-11-18T14:01:14;1.90;99.90
20858;DHT22;10589;53.636;10.012;2022-11-18T14:06:10;1.80;99.90
20858;DHT22;10589;53.636;10.012;2022-11-18T14:08:37;1.80;99.90
20858;DHT22;10589;53.636;10.012;2022-11-18T14:11:04;1.70;99.90
20858;DHT22;10589;53.636;10.012;2022-11-18T14:13:35;1.70;99.90
20858;DHT22;10589;53.636;10.012;2022-11-18T14:18:49;1.60;99.90
20858;DHT22;10589;53.636;10.012;2022-11-18T14:21:28;1.50;99.90
20858;DHT22;10589;53.636;10.012;2022-11-18T14:23:54;1.40;99.90
20858;DHT22;10589;53.636;10.012;2022-11-18T14:26:36;1.40;99.90
20858;DHT22;10589;53.636;10.012;2022-11-18T14:29:16;1.20;99.90
20858;DHT22;10589;53.636;10.012;2022-11-18T14:32:02;1.20;99.90
20858;DHT22;10589;53.636;10.012;2022-11-18T14:34:28;1.10;99.90
20858;DHT22;10589;53.636;10.012;2022-11-18T14:36:55;1.00;99.90
20858;DHT22;10589;53.636;10.012;2022-11-18T14:39:26;0.90;99.90
20858;DHT22;10589;53.636;10.012;2022-11-18T14:41:52;0.80;99.90
20858;DHT22;10589;53.636;10.012;2022-11-18T14:44:19;0.70;99.90
20858;DHT22;10589;53.636;10.012;2022-11-18T14:46:49;0.60;99.90
20858;DHT22;10589;53.636;10.012;2022-11-18T14:49:19;0.50;99.90
20858;DHT22;10589;53.636;10.012;2022-11-18T14:51:47;0.40;99.90
20858;DHT22;10589;53.636;10.012;2022-11-18T14:54:14;0.40;99.90
20858;DHT22;10589;53.636;10.012;2022-11-18T14:56:42;0.30;99.90
20858;DHT22;10589;53.636;10.012;2022-11-18T14:59:11;0.20;99.90
20858;DHT22;10589;53.636;10.012;2022-11-18T15:01:38;0.00;99.90
20858;DHT22;10589;53.636;10.012;2022-11-18T15:04:03;-0.10;99.90
20858;DHT22;10589;53.636;10.012;2022-11-18T15:06:29;-0.20;99.90
20858;DHT22;10589;53.636;10.012;2022-11-18T15:08:54;-0.30;99.90
20858;DHT22;10589;53.636;10.012;2022-11-18T15:11:20;-0.40;99.90
20858;DHT22;10589;53.636;10.012;2022-11-18T15:13:46;-0.50;99.90
20858;DHT22;10589;53.636;10.012;2022-11-18T15:16:20;-0.70;99.90
20858;DHT22;10589;53.636;10.012;2022-11-18T15:18:48;-0.70;99.90
20858;DHT22;10589;53.636;10.012;2022-11-18T15:21:14;-0.80;99.90
20858;DHT22;10589;53.636;10.012;2022-11-18T15:23:40;-0.90;99.90
20858;DHT22;10589;53.636;10.012;2022-11-18T15:28:47;-1.00;99.90
20858;DHT22;10589;53.636;10.012;2022-11-18T15:31:13;-1.10;99.90
20858;DHT22;10589;53.636;10.012;2022-11-18T15:33:39;-1.00;99.90
20858;DHT22;10589;53.636;10.012;2022-11-18T15:36:13;-1.10;99.90
20858;DHT22;10589;53.636;10.012;2022-11-18T15:38:40;-1.00;99.90
20858;DHT22;10589;53.636;10.012;2022-11-18T15:41:06;-0.90;99.90
20858;DHT22;10589;53.636;10.012;2022-11-18T15:43:32;-0.90;99.90
20858;DHT22;10589;53.636;10.012;2022-11-18T15:45:57;-0.80;99.90
20858;DHT22;10589;53.636;10.012;2022-11-18T15:48:23;-0.80;99.90
20858;DHT22;10589;53.636;10.012;2022-11-18T15:50:49;-0.90;99.90
20858;DHT22;10589;53.636;10.012;2022-11-18T15:53:14;-0.90;99.90
20858;DHT22;10589;53.636;10.012;2022-11-18T15:55:40;-1.00;99.90
20858;DHT22;10589;53.636;10.012;2022-11-18T15:58:06;-1.00;99.90
20858;DHT22;10589;53.636;10.012;2022-11-18T16:00:31;-1.00;99.90
20858;DHT22;10589;53.636;10.012;2022-11-18T16:02:57;-1.00;99.90
20858;DHT22;10589;53.636;10.012;2022-11-18T16:05:22;-0.80;99.90
20858;DHT22;10589;53.636;10.012;2022-11-18T16:07:48;-0.70;99.90
20858;DHT22;10589;53.636;10.012;2022-11-18T16:10:14;-0.60;99.90
20858;DHT22;10589;53.636;10.012;2022-11-18T16:12:58;-0.60;99.90
20858;DHT22;10589;53.636;10.012;2022-11-18T16:15:24;-0.50;99.90
20858;DHT22;10589;53.636;10.012;2022-11-18T16:18:08;-0.60;99.90
20858;DHT22;10589;53.636;10.012;2022-11-18T16:20:34;-0.60;99.90
20858;DHT22;10589;53.636;10.012;2022-11-18T16:22:59;-0.50;99.90
20858;DHT22;10589;53.636;10.012;2022-11-18T16:25:25;-0.50;99.90
20858;DHT22;10589;53.636;10.012;2022-11-18T16:27:52;-0.40;99.90
20858;DHT22;10589;53.636;10.012;2022-11-18T16:30:17;-0.30;99.90
20858;DHT22;10589;53.636;10.012;2022-11-18T16:33:01;-0.20;99.90
20858;DHT22;10589;53.636;10.012;2022-11-18T16:35:27;-0.10;99.90
20858;DHT22;10589;53.636;10.012;2022-11-18T16:37:53;-0.10;99.90
20858;DHT22;10589;53.636;10.012;2022-11-18T16:40:19;-0.20;99.90
20858;DHT22;10589;53.636;10.012;2022-11-18T16:42:49;-0.30;99.90
20858;DHT22;10589;53.636;10.012;2022-11-18T16:45:15;-0.30;99.90
20858;DHT22;10589;53.636;10.012;2022-11-18T16:47:41;-0.40;99.90
20858;DHT22;10589;53.636;10.012;2022-11-18T16:50:07;-0.40;99.90
20858;DHT22;10589;53.636;10.012;2022-11-18T16:52:33;-0.40;99.90
20858;DHT22;10589;53.636;10.012;2022-11-18T16:54:59;-0.40;99.90
20858;DHT22;10589;53.636;10.012;2022-11-18T16:57:24;-0.50;99.90
20858;DHT22;10589;53.636;10.012;2022-11-18T16:59:50;-0.60;99.90
20858;DHT22;10589;53.636;10.012;2022-11-18T17:02:16;-0.50;99.90
20858;DHT22;10589;53.636;10.012;2022-11-18T17:04:44;-0.50;99.90
20858;DHT22;10589;53.636;10.012;2022-11-18T17:07:10;-0.40;99.90
20858;DHT22;10589;53.636;10.012;2022-11-18T17:09:36;-0.20;99.90
20858;DHT22;10589;53.636;10.012;2022-11-18T17:12:02;-0.10;99.90
20858;DHT22;10589;53.636;10.012;2022-11-18T17:14:28;0.10;99.90
20858;DHT22;10589;53.636;10.012;2022-11-18T17:16:54;0.10;99.90
20858;DHT22;10589;53.636;10.012;2022-11-18T17:19:22;0.10;99.90
20858;DHT22;10589;53.636;10.012;2022-11-18T17:21:51;0.10;99.90
20858;DHT22;10589;53.636;10.012;2022-11-18T17:24:19;0.00;99.90
20858;DHT22;10589;53.636;10.012;2022-11-18T17:26:45;-0.20;99.90
20858;DHT22;10589;53.636;10.012;2022-11-18T17:29:12;-0.20;99.90
20858;DHT22;10589;53.636;10.012;2022-11-18T17:31:38;-0.40;99.90
20858;DHT22;10589;53.636;10.012;2022-11-18T17:34:04;-0.50;99.90
20858;DHT22;10589;53.636;10.012;2022-11-18T17:36:30;-0.60;99.90
20858;DHT22;10589;53.636;10.012;2022-11-18T17:38:58;-0.60;99.90
20858;DHT22;10589;53.636;10.012;2022-11-18T17:41:26;-0.60;99.90
20858;DHT22;10589;53.636;10.012;2022-11-18T17:44:12;-0.70;99.90
20858;DHT22;10589;53.636;10.012;2022-11-18T17:46:38;-0.60;99.90
20858;DHT22;10589;53.636;10.012;2022-11-18T17:49:09;-0.70;99.90
20858;DHT22;10589;53.636;10.012;2022-11-18T17:51:34;-0.60;99.90
20858;DHT22;10589;53.636;10.012;2022-11-18T17:54:00;-0.60;99.90
20858;DHT22;10589;53.636;10.012;2022-11-18T17:56:26;-0.60;99.90
20858;DHT22;10589;53.636;10.012;2022-11-18T17:58:51;-0.60;99.90
20858;DHT22;10589;53.636;10.012;2022-11-18T18:01:18;-0.50;99.90
20858;DHT22;10589;53.636;10.012;2022-11-18T18:03:44;-0.60;99.90
20858;DHT22;10589;53.636;10.012;2022-11-18T18:06:11;-0.60;99.90
20858;DHT22;10589;53.636;10.012;2022-11-18T18:08:37;-0.60;99.90
20858;DHT22;10589;53.636;10.012;2022-11-18T18:11:05;-0.70;99.90
20858;DHT22;10589;53.636;10.012;2022-11-18T18:13:31;-0.70;99.90
20858;DHT22;10589;53.636;10.012;2022-11-18T18:16:15;-0.80;99.90
20858;DHT22;10589;53.636;10.012;2022-11-18T18:18:41;-0.90;99.90
20858;DHT22;10589;53.636;10.012;2022-11-18T18:21:07;-1.00;99.90
20858;DHT22;10589;53.636;10.012;2022-11-18T18:23:34;-1.00;99.90
20858;DHT22;10589;53.636;10.012;2022-11-18T18:26:07;-1.00;99.90
20858;DHT22;10589;53.636;10.012;2022-11-18T18:28:33;-1.10;99.90
20858;DHT22;10589;53.636;10.012;2022-11-18T18:30:59;-1.00;99.90
20858;DHT22;10589;53.636;10.012;2022-11-18T18:33:25;-1.00;99.90
20858;DHT22;10589;53.636;10.012;2022-11-18T18:35:58;-1.00;99.90
20858;DHT22;10589;53.636;10.012;2022-11-18T18:38:24;-0.90;99.90
20858;DHT22;10589;53.636;10.012;2022-11-18T18:40:50;-0.90;99.90
20858;DHT22;10589;53.636;10.012;2022-11-18T18:43:16;-1.00;99.90
20858;DHT22;10589;53.636;10.012;2022-11-18T18:45:41;-0.90;99.90
20858;DHT22;10589;53.636;10.012;2022-11-18T18:48:26;-1.00;99.90
20858;DHT22;10589;53.636;10.012;2022-11-18T18:50:51;-0.80;99.90
20858;DHT22;10589;53.636;10.012;2022-11-18T18:53:17;-0.80;99.90
20858;DHT22;10589;53.636;10.012;2022-11-18T18:55:42;-0.70;99.90
20858;DHT22;10589;53.636;10.012;2022-11-18T18:58:08;-0.70;99.90
20858;DHT22;10589;53.636;10.012;2022-11-18T19:00:34;-0.70;99.90
20858;DHT22;10589;53.636;10.012;2022-11-18T19:02:59;-0.70;99.90
20858;DHT22;10589;53.636;10.012;2022-11-18T19:05:27;-0.70;99.90
20858;DHT22;10589;53.636;10.012;2022-11-18T19:07:53;-0.70;99.90
20858;DHT22;10589;53.636;10.012;2022-11-18T19:10:18;-0.70;99.90
20858;DHT22;10589;53.636;10.012;2022-11-18T19:12:45;-0.80;99.90
20858;DHT22;10589;53.636;10.012;2022-11-18T19:15:19;-0.90;99.90
20858;DHT22;10589;53.636;10.012;2022-11-18T19:17:48;-0.90;99.90
20858;DHT22;10589;53.636;10.012;2022-11-18T19:20:13;-1.00;99.90
20858;DHT22;10589;53.636;10.012;2022-11-18T19:23:06;-1.10;99.90
20858;DHT22;10589;53.636;10.012;2022-11-18T19:25:32;-1.00;99.90
20858;DHT22;10589;53.636;10.012;2022-11-18T19:27:58;-1.00;99.90
20858;DHT22;10589;53.636;10.012;2022-11-18T19:30:24;-1.10;99.90
20858;DHT22;10589;53.636;10.012;2022-11-18T19:32:50;-1.10;99.90
20858;DHT22;10589;53.636;10.012;2022-11-18T19:35:16;-1.10;99.90
20858;DHT22;10589;53.636;10.012;2022-11-18T19:37:41;-1.00;99.90
20858;DHT22;10589;53.636;10.012;2022-11-18T19:40:08;-1.00;99.90
20858;DHT22;10589;53.636;10.012;2022-11-18T19:42:34;-0.90;99.90
20858;DHT22;10589;53.636;10.012;2022-11-18T19:45:04;-0.90;99.90
20858;DHT22;10589;53.636;10.012;2022-11-18T19:47:30;-1.00;99.90
20858;DHT22;10589;53.636;10.012;2022-11-18T19:49:56;-1.00;99.90
20858;DHT22;10589;53.636;10.012;2022-11-18T19:52:21;-1.10;99.90
20858;DHT22;10589;53.636;10.012;2022-11-18T19:54:47;-1.10;99.90
20858;DHT22;10589;53.636;10.012;2022-11-18T19:57:12;-1.20;99.90
20858;DHT22;10589;53.636;10.012;2022-11-18T19:59:38;-1.20;99.90
20858;DHT22;10589;53.636;10.012;2022-11-18T20:02:04;-1.30;99.90
20858;DHT22;10589;53.636;10.012;2022-11-18T20:04:30;-1.40;99.90
20858;DHT22;10589;53.636;10.012;2022-11-18T20:06:56;-1.50;99.90
20858;DHT22;10589;53.636;10.012;2022-11-18T20:09:21;-1.60;99.90
20858;DHT22;10589;53.636;10.012;2022-11-18T20:11:47;-1.70;99.90
20858;DHT22;10589;53.636;10.012;2022-11-18T20:14:13;-1.70;99.90
20858;DHT22;10589;53.636;10.012;2022-11-18T20:16:39;-1.80;99.90
20858;DHT22;10589;53.636;10.012;2022-11-18T20:19:05;-1.80;99.90
20858;DHT22;10589;53.636;10.012;2022-11-18T20:21:32;-1.90;99.90
20858;DHT22;10589;53.636;10.012;2022-11-18T20:24:00;-1.90;99.90
20858;DHT22;10589;53.636;10.012;2022-11-18T20:26:30;-2.00;99.90
20858;DHT22;10589;53.636;10.012;2022-11-18T20:28:55;-2.00;99.90
20858;DHT22;10589;53.636;10.012;2022-11-18T20:31:22;-2.10;99.90
20858;DHT22;10589;53.636;10.012;2022-11-18T20:33:49;-2.10;99.90
20858;DHT22;10589;53.636;10.012;2022-11-18T20:36:18;-2.10;99.90
20858;DHT22;10589;53.636;10.012;2022-11-18T20:38:48;-2.10;99.90
20858;DHT22;10589;53.636;10.012;2022-11-18T20:41:14;-2.10;99.90
20858;DHT22;10589;53.636;10.012;2022-11-18T20:43:40;-2.00;99.90
20858;DHT22;10589;53.636;10.012;2022-11-18T20:46:08;-1.90;99.90
20858;DHT22;10589;53.636;10.012;2022-11-18T20:48:34;-1.80;99.90
20858;DHT22;10589;53.636;10.012;2022-11-18T20:51:11;-1.80;99.90
20858;DHT22;10589;53.636;10.012;2022-11-18T20:53:41;-1.70;99.90
20858;DHT22;10589;53.636;10.012;2022-11-18T20:56:08;-1.70;99.90
20858;DHT22;10589;53.636;10.012;2022-11-18T20:58:34;-1.70;99.90
20858;DHT22;10589;53.636;10.012;2022-11-18T21:01:17;-1.80;99.90
20858;DHT22;10589;53.636;10.012;2022-11-18T21:03:51;-1.90;99.90
20858;DHT22;10589;53.636;10.012;2022-11-18T21:06:18;-1.80;99.90
20858;DHT22;10589;53.636;10.012;2022-11-18T21:08:43;-1.80;99.90
20858;DHT22;10589;53.636;10.012;2022-11-18T21:11:10;-1.70;99.90
20858;DHT22;10589;53.636;10.012;2022-11-18T21:13:37;-1.60;99.90
20858;DHT22;10589;53.636;10.012;2022-11-18T21:16:22;-1.60;99.90
20858;DHT22;10589;53.636;10.012;2022-11-18T21:18:48;-1.50;99.90
20858;DHT22;10589;53.636;10.012;2022-11-18T21:21:13;-1.50;99.90
20858;DHT22;10589;53.636;10.012;2022-11-18T21:23:59;-1.50;99.90
20858;DHT22;10589;53.636;10.012;2022-11-18T21:26:30;-1.50;99.90
20858;DHT22;10589;53.636;10.012;2022-11-18T21:28:59;-1.50;99.90
20858;DHT22;10589;53.636;10.012;2022-11-18T21:31:26;-1.50;99.90
20858;DHT22;10589;53.636;10.012;2022-11-18T21:33:52;-1.50;99.90
20858;DHT22;10589;53.636;10.012;2022-11-18T21:36:19;-1.60;99.90
20858;DHT22;10589;53.636;10.012;2022-11-18T21:38:46;-1.70;99.90
20858;DHT22;10589;53.636;10.012;2022-11-18T21:41:12;-1.80;99.90
20858;DHT22;10589;53.636;10.012;2022-11-18T21:43:38;-1.80;99.90
20858;DHT22;10589;53.636;10.012;2022-11-18T21:46:06;-1.90;99.90